Richton Park, Illinois
Current Conditions -  °F | °C
As of 11:35 AM on Saturday 25 Oct 2014 (Local Time) from KIGQ Reporting Station
Clear Clear  
Wind Chill: 66°   Ceiling: Unl
Heat Index: 66°   Visibility: 10mi
Dew Point: 53°   Wind: 9mph
Humidity: 63%   Direction: 300°WNW
Pressure: 29.96"   Gusts: NA
Location:  41.48°N, 87.72°W
Report Text: KIGQ 251635Z AUTO 30008KT 10SM CLR 19/12 A2996 RMK AO2 T01910118
Loading
Personal Weather Stations






























Interactive Weather Map New forecast layout! Learn more

10-Day Weather Forecast

Advertisements
Track Severe Weather on mobile